Sunkist, California
Current Conditions -  °F | °C
As of 12:53 PM on Monday 24 Nov 2014 (Local Time) from KFUL Reporting Station
Clear Clear  
Wind Chill: 82°   Ceiling: Unl
Heat Index: 82°   Visibility: 10mi
Dew Point: 10°   Wind: 15mph
Humidity: 7%   Direction: 90°E
Pressure: 30.16"   Gusts: NA
Location:  33.8393°N, 117.87°W
Report Text: KFUL 242053Z 09013KT 10SM CLR 28/M12 A3016 RMK AO2 SLP212 T02781122 58021
Loading
Personal Weather Stations






























Interactive Weather Map New forecast layout! Learn more

10-Day Weather Forecast

Advertisements
Track Severe Weather on mobile